createdAt,value
2023-04-11T00:01:11.118Z,13.80
2023-04-11T00:03:38.423Z,13.75
2023-04-11T00:06:05.358Z,13.68
2023-04-11T00:08:31.782Z,13.64
2023-04-11T00:10:58.427Z,13.63
2023-04-11T00:13:26.652Z,13.62
2023-04-11T00:15:55.639Z,13.63
2023-04-11T00:18:22.890Z,13.58
2023-04-11T00:20:49.381Z,13.57
2023-04-11T00:23:16.035Z,13.57
2023-04-11T00:25:42.507Z,13.55
2023-04-11T00:28:09.390Z,13.53
2023-04-11T00:30:35.750Z,13.49
2023-04-11T00:33:02.317Z,13.47
2023-04-11T00:35:28.930Z,13.45
2023-04-11T00:37:56.276Z,13.40
2023-04-11T00:40:22.956Z,13.35
2023-04-11T00:42:49.451Z,13.33
2023-04-11T00:45:15.891Z,13.33
2023-04-11T00:47:42.475Z,13.32
2023-04-11T00:50:09.199Z,13.27
2023-04-11T00:52:36.244Z,13.24
2023-04-11T00:55:03.339Z,13.22
2023-04-11T00:57:30.900Z,13.19
2023-04-11T00:59:58.264Z,13.18
2023-04-11T01:02:25.049Z,13.16
2023-04-11T01:04:51.628Z,13.12
2023-04-11T01:07:18.141Z,13.07
2023-04-11T01:09:44.646Z,12.99
2023-04-11T01:12:11.537Z,12.95
2023-04-11T01:14:37.916Z,12.95
2023-04-11T01:17:04.511Z,12.93
2023-04-11T01:19:31.214Z,12.91
2023-04-11T01:21:58.056Z,12.87
2023-04-11T01:24:25.657Z,12.87
2023-04-11T01:26:52.184Z,12.85
2023-04-11T01:29:18.680Z,12.83
2023-04-11T01:31:45.137Z,12.80
2023-04-11T01:34:14.213Z,12.82
2023-04-11T01:36:43.564Z,12.83
2023-04-11T01:39:10.088Z,12.87
2023-04-11T01:41:36.589Z,12.91
2023-04-11T01:44:03.977Z,12.92
2023-04-11T01:46:30.622Z,12.93
2023-04-11T01:48:57.729Z,12.91
2023-04-11T01:51:24.417Z,12.87
2023-04-11T01:53:51.085Z,12.84
2023-04-11T01:56:17.486Z,12.82
2023-04-11T01:58:43.849Z,12.76
2023-04-11T02:01:11.911Z,12.73
2023-04-11T02:03:38.471Z,12.68
2023-04-11T02:06:05.379Z,12.62
2023-04-11T02:08:31.914Z,12.58
2023-04-11T02:10:58.325Z,12.55
2023-04-11T02:13:24.755Z,12.54
2023-04-11T02:15:51.249Z,12.53
2023-04-11T02:18:17.692Z,12.54
2023-04-11T02:20:44.150Z,12.53
2023-04-11T02:23:11.157Z,12.52
2023-04-11T02:25:39.033Z,12.47
2023-04-11T02:28:08.010Z,12.44
2023-04-11T02:30:34.729Z,12.47
2023-04-11T02:33:01.769Z,12.48
2023-04-11T02:35:28.366Z,12.48
2023-04-11T02:37:54.791Z,12.48
2023-04-11T02:40:21.283Z,12.50
2023-04-11T02:42:47.671Z,12.51
2023-04-11T02:45:14.096Z,12.56
2023-04-11T02:47:40.618Z,12.56
2023-04-11T02:50:07.546Z,12.56
2023-04-11T02:52:34.188Z,12.55
2023-04-11T02:55:00.748Z,12.49
2023-04-11T02:57:27.762Z,12.46
2023-04-11T02:59:54.408Z,12.44
2023-04-11T03:02:23.492Z,12.42
2023-04-11T03:04:50.240Z,12.35
2023-04-11T03:07:16.626Z,12.33
2023-04-11T03:09:43.033Z,12.31
2023-04-11T03:12:09.475Z,12.29
2023-04-11T03:14:35.923Z,12.19
2023-04-11T03:17:02.412Z,12.16
2023-04-11T03:19:28.855Z,12.14
2023-04-11T03:21:55.525Z,12.15
2023-04-11T03:24:22.464Z,12.14
2023-04-11T03:26:48.924Z,12.13
2023-04-11T03:29:16.629Z,12.11
2023-04-11T03:31:43.233Z,12.08
2023-04-11T03:34:09.727Z,12.04
2023-04-11T03:36:36.207Z,12.02
2023-04-11T03:39:02.936Z,12.02
2023-04-11T03:41:29.818Z,12.03
2023-04-11T03:43:56.253Z,12.05
2023-04-11T03:46:22.846Z,12.05
2023-04-11T03:48:49.386Z,12.04
2023-04-11T03:51:15.961Z,12.05
2023-04-11T03:53:42.349Z,12.02
2023-04-11T03:56:09.179Z,12.00
2023-04-11T03:58:36.129Z,11.96
2023-04-11T04:01:03.412Z,11.98
2023-04-11T04:03:30.054Z,12.01
2023-04-11T04:05:56.838Z,12.03
2023-04-11T04:08:23.388Z,12.04
2023-04-11T04:10:49.836Z,12.03
2023-04-11T04:13:17.534Z,12.05
2023-04-11T04:15:43.988Z,12.04
2023-04-11T04:18:10.436Z,12.05
2023-04-11T04:20:36.892Z,12.07
2023-04-11T04:23:06.113Z,12.04
2023-04-11T04:25:32.630Z,12.03
2023-04-11T04:28:00.991Z,11.95
2023-04-11T04:30:28.992Z,11.93
2023-04-11T04:32:58.875Z,11.91
2023-04-11T04:35:26.155Z,11.90
2023-04-11T04:37:56.413Z,11.84
2023-04-11T04:40:22.918Z,11.79
2023-04-11T04:42:58.639Z,11.77
2023-04-11T04:45:26.624Z,11.75
2023-04-11T04:47:53.112Z,11.73
2023-04-11T04:50:19.831Z,11.74
2023-04-11T04:52:46.606Z,11.73
2023-04-11T04:55:14.031Z,11.74
2023-04-11T04:57:40.609Z,11.77
2023-04-11T05:00:11.600Z,11.80
2023-04-11T05:02:38.238Z,11.82
2023-04-11T05:05:05.012Z,11.83
2023-04-11T05:07:31.481Z,11.84
2023-04-11T05:09:57.926Z,11.86
2023-04-11T05:12:27.185Z,11.92
2023-04-11T05:14:55.497Z,11.94
2023-04-11T05:17:23.883Z,12.00
2023-04-11T05:19:51.617Z,12.04
2023-04-11T05:22:18.162Z,12.07
2023-04-11T05:24:44.711Z,12.08
2023-04-11T05:27:13.434Z,12.09
2023-04-11T05:29:40.119Z,12.13
2023-04-11T05:32:06.507Z,12.17
2023-04-11T05:34:35.474Z,12.22
2023-04-11T05:37:01.974Z,12.23
2023-04-11T05:39:28.958Z,12.24
2023-04-11T05:41:56.793Z,12.27
2023-04-11T05:44:25.522Z,12.34
2023-04-11T05:46:52.064Z,12.43
2023-04-11T05:49:19.059Z,12.53
2023-04-11T05:51:45.704Z,12.61
2023-04-11T05:54:13.643Z,12.66
2023-04-11T05:56:42.542Z,12.69
2023-04-11T05:59:09.128Z,12.73
2023-04-11T06:01:35.619Z,12.76
2023-04-11T06:04:03.168Z,12.82
2023-04-11T06:06:29.859Z,12.79
2023-04-11T06:08:56.680Z,12.82
2023-04-11T06:11:25.363Z,12.83
2023-04-11T06:13:54.917Z,12.82
2023-04-11T06:16:30.112Z,12.79
2023-04-11T06:18:56.575Z,12.74
2023-04-11T06:21:26.373Z,12.69
2023-04-11T06:23:55.293Z,12.66
2023-04-11T06:26:21.888Z,12.64
2023-04-11T06:28:48.646Z,12.66
2023-04-11T06:31:15.664Z,12.68
2023-04-11T06:33:42.698Z,12.71
2023-04-11T06:36:09.460Z,12.73
2023-04-11T06:38:36.759Z,12.78
2023-04-11T06:41:04.423Z,12.85
2023-04-11T06:43:32.005Z,12.88
2023-04-11T06:45:58.479Z,12.98
2023-04-11T06:48:24.940Z,13.12
2023-04-11T06:50:51.326Z,13.25
2023-04-11T06:53:18.368Z,13.38
2023-04-11T06:55:48.085Z,13.45
2023-04-11T06:58:14.458Z,13.48
2023-04-11T07:00:41.094Z,13.51
2023-04-11T07:03:08.661Z,13.49
2023-04-11T07:05:38.196Z,13.50
2023-04-11T07:08:05.802Z,13.47
2023-04-11T07:10:32.324Z,13.46
2023-04-11T07:12:58.772Z,13.45
2023-04-11T07:15:25.186Z,13.45
2023-04-11T07:17:52.982Z,13.47
2023-04-11T07:20:19.634Z,13.53
2023-04-11T07:22:46.125Z,13.59
2023-04-11T07:25:13.310Z,13.57
2023-04-11T07:27:42.813Z,13.56
2023-04-11T07:30:09.457Z,13.58
2023-04-11T07:32:36.759Z,13.62
2023-04-11T07:35:06.168Z,13.65
2023-04-11T07:37:42.069Z,13.64
2023-04-11T07:40:11.846Z,13.65
2023-04-11T07:42:38.334Z,13.70
2023-04-11T07:45:05.100Z,13.75
2023-04-11T07:47:31.584Z,13.75
2023-04-11T07:49:59.424Z,13.77
2023-04-11T07:52:26.005Z,13.81
2023-04-11T07:54:52.361Z,13.85
2023-04-11T07:57:18.887Z,13.86
2023-04-11T07:59:46.388Z,13.84
2023-04-11T08:02:13.070Z,13.84
2023-04-11T08:04:41.991Z,13.86
2023-04-11T08:07:12.974Z,13.83
2023-04-11T08:09:39.454Z,13.83
2023-04-11T08:12:06.262Z,13.82
2023-04-11T08:14:32.775Z,13.85
2023-04-11T08:16:59.300Z,13.88
2023-04-11T08:19:25.907Z,13.94
2023-04-11T08:21:52.913Z,13.94
2023-04-11T08:24:19.587Z,13.86
2023-04-11T08:26:46.179Z,13.84
2023-04-11T08:29:13.706Z,13.84
2023-04-11T08:31:44.437Z,13.90
2023-04-11T08:34:11.406Z,13.97
2023-04-11T08:36:37.862Z,14.10
2023-04-11T08:39:04.392Z,14.23
2023-04-11T08:41:30.867Z,14.34
2023-04-11T08:43:57.863Z,14.41
2023-04-11T08:46:24.567Z,14.44
2023-04-11T08:48:51.310Z,14.50
2023-04-11T08:51:20.993Z,14.54
2023-04-11T08:53:47.516Z,14.60
2023-04-11T08:56:14.495Z,14.73
2023-04-11T08:58:43.132Z,14.86
2023-04-11T09:01:32.216Z,14.97
2023-04-11T09:03:59.658Z,15.11
2023-04-11T09:06:32.498Z,15.21
2023-04-11T09:08:59.997Z,15.29
2023-04-11T09:11:26.827Z,15.37
2023-04-11T09:14:10.740Z,15.37
2023-04-11T09:16:37.542Z,15.34
2023-04-11T09:19:04.015Z,15.32
2023-04-11T09:21:31.304Z,15.25
2023-04-11T09:24:16.543Z,15.13
2023-04-11T09:26:42.979Z,15.12
2023-04-11T09:29:09.477Z,15.12
2023-04-11T09:31:42.816Z,15.15
2023-04-11T09:34:09.520Z,15.20
2023-04-11T09:36:35.931Z,15.27
2023-04-11T09:39:19.265Z,15.30
2023-04-11T09:41:46.156Z,15.32
2023-04-11T09:44:12.824Z,15.29
2023-04-11T09:47:00.405Z,15.32
2023-04-11T09:49:27.099Z,15.43
2023-04-11T09:51:53.512Z,15.51
2023-04-11T09:54:23.340Z,15.51
2023-04-11T09:56:50.333Z,15.49
2023-04-11T09:59:16.809Z,15.56
2023-04-11T10:01:43.390Z,15.59
2023-04-11T10:04:11.573Z,15.55
2023-04-11T10:07:02.366Z,15.57
2023-04-11T10:09:28.992Z,15.49
2023-04-11T10:11:55.625Z,15.42
2023-04-11T10:14:37.420Z,15.42
2023-04-11T10:17:20.072Z,15.45
2023-04-11T10:19:50.839Z,15.45
2023-04-11T10:22:36.107Z,15.52
2023-04-11T10:25:17.156Z,15.69
2023-04-11T10:28:03.920Z,15.71
2023-04-11T10:30:39.716Z,15.75
2023-04-11T10:33:09.551Z,15.94
2023-04-11T10:35:40.309Z,15.96
2023-04-11T10:38:15.036Z,15.75
2023-04-11T10:41:01.522Z,15.54
2023-04-11T10:43:28.249Z,15.42
2023-04-11T10:46:14.679Z,15.39
2023-04-11T10:49:07.576Z,15.41
2023-04-11T10:51:34.179Z,15.46
2023-04-11T10:54:03.468Z,15.53
2023-04-11T10:56:50.662Z,15.49
2023-04-11T10:59:46.340Z,15.44
2023-04-11T11:02:13.012Z,15.42
2023-04-11T11:04:40.795Z,15.39
2023-04-11T11:07:13.418Z,15.32
2023-04-11T11:09:44.685Z,15.29
2023-04-11T11:12:13.981Z,15.32
2023-04-11T11:14:41.573Z,15.33
2023-04-11T11:17:33.157Z,15.40
2023-04-11T11:19:59.816Z,15.69
2023-04-11T11:22:38.640Z,15.79
2023-04-11T11:28:58.156Z,15.93
2023-04-11T11:31:34.197Z,16.09
2023-04-11T11:34:18.353Z,16.05
2023-04-11T11:36:47.701Z,15.89
2023-04-11T11:39:14.306Z,15.84
2023-04-11T11:41:40.866Z,15.81
2023-04-11T11:44:07.339Z,15.81
2023-04-11T11:46:37.471Z,15.82
2023-04-11T11:49:16.642Z,15.82
2023-04-11T11:55:53.048Z,15.81
2023-04-11T11:58:22.915Z,15.74
2023-04-11T12:01:18.689Z,15.70
2023-04-11T12:03:51.587Z,15.81
2023-04-11T12:09:48.246Z,16.40
2023-04-11T12:12:15.973Z,16.63
2023-04-11T12:14:56.696Z,16.82
2023-04-11T12:17:23.380Z,17.00
2023-04-11T12:19:49.897Z,17.06
2023-04-11T12:22:16.364Z,17.07
2023-04-11T12:24:46.094Z,17.17
2023-04-11T12:27:12.733Z,17.18
2023-04-11T12:29:39.232Z,17.21
2023-04-11T12:32:06.695Z,17.27
2023-04-11T12:34:40.396Z,17.27
2023-04-11T12:37:06.876Z,17.21
2023-04-11T12:39:33.320Z,17.17
2023-04-11T12:41:59.727Z,17.15
2023-04-11T12:44:26.664Z,17.08
2023-04-11T12:46:53.146Z,17.06
2023-04-11T12:49:20.624Z,17.10
2023-04-11T12:51:47.252Z,17.09
2023-04-11T12:54:13.659Z,17.08
2023-04-11T12:56:40.622Z,17.00
2023-04-11T12:59:07.173Z,16.91
2023-04-11T13:01:33.652Z,16.89
2023-04-11T13:04:00.652Z,16.93
2023-04-11T13:06:28.244Z,16.95
2023-04-11T13:08:56.640Z,16.91
2023-04-11T13:11:23.123Z,16.90
2023-04-11T13:13:50.952Z,16.90
2023-04-11T13:16:17.571Z,16.80
2023-04-11T13:18:44.074Z,16.79
2023-04-11T13:21:10.726Z,16.76
2023-04-11T13:23:37.074Z,16.71
2023-04-11T13:26:03.508Z,16.70
2023-04-11T13:28:29.930Z,16.72
2023-04-11T13:30:56.490Z,16.66
2023-04-11T13:33:22.926Z,16.50
2023-04-11T13:35:49.316Z,16.42
2023-04-11T13:38:15.793Z,16.33
2023-04-11T13:40:42.751Z,16.29
2023-04-11T13:43:10.031Z,16.23
2023-04-11T13:45:36.516Z,16.09
2023-04-11T13:48:03.347Z,16.02
2023-04-11T13:50:32.062Z,15.95
2023-04-11T13:52:58.452Z,15.86
2023-04-11T13:55:24.954Z,15.90
2023-04-11T13:57:51.408Z,16.00
2023-04-11T14:00:18.421Z,16.02
2023-04-11T14:02:45.030Z,16.14
2023-04-11T14:05:11.667Z,16.17
2023-04-11T14:07:38.093Z,16.19
2023-04-11T14:10:04.698Z,16.28
2023-04-11T14:12:31.146Z,16.30
2023-04-11T14:14:57.635Z,16.26
2023-04-11T14:17:24.302Z,16.16
2023-04-11T14:19:50.825Z,16.09
2023-04-11T14:22:17.422Z,16.09
2023-04-11T14:24:43.913Z,16.09
2023-04-11T14:27:10.332Z,16.02
2023-04-11T14:29:37.678Z,15.99
2023-04-11T14:32:07.035Z,15.97
2023-04-11T14:34:33.540Z,15.99
2023-04-11T14:37:00.014Z,16.03
2023-04-11T14:39:26.444Z,16.06
2023-04-11T14:41:52.788Z,16.04
2023-04-11T14:44:19.219Z,16.02
2023-04-11T14:46:45.879Z,16.01
2023-04-11T14:49:12.429Z,15.99
2023-04-11T14:51:38.911Z,15.96
2023-04-11T14:54:05.601Z,15.96
2023-04-11T14:56:32.432Z,15.98
2023-04-11T14:58:58.893Z,15.97
2023-04-11T15:01:25.360Z,15.90
2023-04-11T15:03:51.978Z,15.82
2023-04-11T15:06:18.490Z,15.72
2023-04-11T15:08:44.861Z,15.72
2023-04-11T15:11:11.406Z,15.75
2023-04-11T15:13:37.873Z,15.78
2023-04-11T15:16:04.559Z,15.70
2023-04-11T15:18:31.539Z,15.61
2023-04-11T15:20:58.685Z,15.49
2023-04-11T15:23:25.252Z,15.48
2023-04-11T15:25:59.689Z,15.45
2023-04-11T15:28:26.746Z,15.37
2023-04-11T15:30:53.899Z,15.29
2023-04-11T15:33:24.004Z,15.21
2023-04-11T15:35:50.743Z,15.21
2023-04-11T15:38:18.673Z,15.19
2023-04-11T15:40:45.165Z,15.18
2023-04-11T15:43:11.595Z,15.17
2023-04-11T15:45:38.493Z,15.20
2023-04-11T15:48:05.261Z,15.18
2023-04-11T15:50:32.133Z,15.08
2023-04-11T15:52:58.881Z,15.07
2023-04-11T15:55:25.331Z,15.08
2023-04-11T15:57:51.933Z,15.09
2023-04-11T16:00:19.659Z,15.05
2023-04-11T16:02:46.707Z,15.06
2023-04-11T16:05:13.727Z,15.07
2023-04-11T16:07:40.899Z,15.06
2023-04-11T16:10:10.814Z,15.09
2023-04-11T16:12:37.240Z,15.08
2023-04-11T16:15:04.121Z,15.08
2023-04-11T16:17:30.653Z,15.08
2023-04-11T16:19:57.138Z,15.08
2023-04-11T16:22:23.499Z,15.02
2023-04-11T16:24:49.960Z,14.95
2023-04-11T16:27:16.526Z,14.86
2023-04-11T16:29:42.982Z,14.76
2023-04-11T16:32:10.792Z,14.72
2023-04-11T16:34:37.309Z,14.73
2023-04-11T16:37:03.932Z,14.73
2023-04-11T16:39:30.568Z,14.70
2023-04-11T16:41:57.257Z,14.68
2023-04-11T16:44:23.708Z,14.64
2023-04-11T16:46:50.229Z,14.61
2023-04-11T16:49:20.661Z,14.59
2023-04-11T16:51:47.096Z,14.61
2023-04-11T16:54:13.836Z,14.61
2023-04-11T16:56:40.770Z,14.61
2023-04-11T16:59:07.447Z,14.60
2023-04-11T17:01:34.676Z,14.57
2023-04-11T17:04:01.687Z,14.55
2023-04-11T17:06:28.548Z,14.58
2023-04-11T17:08:57.049Z,14.56
2023-04-11T17:11:23.527Z,14.53
2023-04-11T17:13:49.979Z,14.50
2023-04-11T17:16:17.517Z,14.46
2023-04-11T17:18:44.060Z,14.46
2023-04-11T17:21:10.531Z,14.46
2023-04-11T17:23:43.159Z,14.45
2023-04-11T17:26:11.873Z,14.44
2023-04-11T17:28:39.243Z,14.41
2023-04-11T17:31:19.025Z,14.40
2023-04-11T17:33:46.009Z,14.37
2023-04-11T17:36:13.192Z,14.34
2023-04-11T17:38:40.264Z,14.31
2023-04-11T17:41:14.378Z,14.26
2023-04-11T17:43:41.637Z,14.23
2023-04-11T17:46:08.903Z,14.22
2023-04-11T17:48:36.891Z,14.19
2023-04-11T17:51:04.229Z,14.18
2023-04-11T17:53:31.051Z,14.15
2023-04-11T17:55:57.546Z,14.15
2023-04-11T17:58:33.709Z,14.15
2023-04-11T18:01:00.172Z,14.15
2023-04-11T18:03:26.721Z,14.15
2023-04-11T18:05:54.396Z,14.15
2023-04-11T18:08:26.025Z,14.14
2023-04-11T18:10:59.500Z,14.14
2023-04-11T18:13:27.187Z,14.16
2023-04-11T18:15:53.623Z,14.19
2023-04-11T18:18:20.048Z,14.21
2023-04-11T18:20:47.680Z,14.22
2023-04-11T18:23:14.157Z,14.25
2023-04-11T18:25:40.634Z,14.23
2023-04-11T18:28:07.262Z,14.24
2023-04-11T18:30:33.738Z,14.27
2023-04-11T18:33:00.321Z,14.29
2023-04-11T18:35:27.928Z,14.31
2023-04-11T18:37:54.433Z,14.31
2023-04-11T18:40:20.968Z,14.32
2023-04-11T18:42:48.855Z,14.32
2023-04-11T18:45:21.304Z,14.31
2023-04-11T18:47:47.806Z,14.34
2023-04-11T18:50:14.907Z,14.33
2023-04-11T18:52:41.369Z,14.32
2023-04-11T18:55:08.021Z,14.32
2023-04-11T18:57:36.587Z,14.35
2023-04-11T19:00:17.392Z,14.32
2023-04-11T19:02:45.922Z,14.34
2023-04-11T19:05:13.902Z,14.33
2023-04-11T19:07:41.484Z,14.31
2023-04-11T19:10:08.284Z,14.32
2023-04-11T19:12:34.948Z,14.32
2023-04-11T19:15:01.591Z,14.33
2023-04-11T19:17:28.393Z,14.34
2023-04-11T19:19:54.945Z,14.36
2023-04-11T19:22:21.568Z,14.34
2023-04-11T19:24:49.866Z,14.30
2023-04-11T19:27:18.417Z,14.26
2023-04-11T19:29:45.385Z,14.24
2023-04-11T19:32:12.277Z,14.22
2023-04-11T19:34:41.230Z,14.21
2023-04-11T19:37:08.226Z,14.20
2023-04-11T19:39:38.386Z,14.11
2023-04-11T19:42:05.188Z,14.05
2023-04-11T19:44:31.635Z,14.01
2023-04-11T19:46:58.101Z,14.04
2023-04-11T19:49:24.546Z,14.03
2023-04-11T19:51:51.301Z,14.03
2023-04-11T19:54:17.753Z,14.07
2023-04-11T19:56:49.156Z,14.01
2023-04-11T19:59:15.918Z,13.92
2023-04-11T20:01:42.513Z,13.88
2023-04-11T20:04:09.826Z,13.90
2023-04-11T20:06:36.608Z,13.91
2023-04-11T20:09:04.159Z,13.87
2023-04-11T20:11:32.812Z,13.90
2023-04-11T20:13:59.373Z,13.93
2023-04-11T20:16:26.467Z,13.95
2023-04-11T20:18:53.693Z,13.90
2023-04-11T20:21:20.185Z,13.88
2023-04-11T20:23:46.632Z,13.92
2023-04-11T20:26:13.200Z,13.88
2023-04-11T20:28:39.818Z,13.84
2023-04-11T20:31:06.856Z,13.83
2023-04-11T20:33:33.345Z,13.85
2023-04-11T20:35:59.786Z,13.83
2023-04-11T20:38:27.614Z,13.84
2023-04-11T20:40:54.100Z,13.83
2023-04-11T20:43:20.572Z,13.83
2023-04-11T20:45:47.067Z,13.83
2023-04-11T20:48:13.701Z,13.81
2023-04-11T20:50:41.155Z,13.83
2023-04-11T20:53:07.857Z,13.79
2023-04-11T20:55:34.438Z,13.78
2023-04-11T20:58:00.852Z,13.79
2023-04-11T21:00:27.517Z,13.79
2023-04-11T21:02:54.417Z,13.83
2023-04-11T21:05:25.128Z,13.88
2023-04-11T21:07:54.318Z,13.89
2023-04-11T21:10:21.181Z,13.90
2023-04-11T21:12:54.158Z,13.92
2023-04-11T21:15:21.326Z,13.96
2023-04-11T21:17:48.255Z,14.00
2023-04-11T21:20:18.212Z,14.01
2023-04-11T21:22:45.566Z,13.95
2023-04-11T21:25:11.999Z,13.96
2023-04-11T21:27:38.485Z,13.95
2023-04-11T21:30:06.388Z,13.96
2023-04-11T21:32:33.127Z,13.92
2023-04-11T21:34:59.728Z,13.89
2023-04-11T21:37:26.127Z,13.91
2023-04-11T21:39:55.738Z,13.91
2023-04-11T21:42:22.271Z,13.92
2023-04-11T21:44:48.688Z,13.96
2023-04-11T21:47:15.093Z,13.95
2023-04-11T21:49:41.537Z,13.92
2023-04-11T21:52:08.825Z,13.92
2023-04-11T21:54:35.423Z,13.96
2023-04-11T21:57:02.196Z,13.98
2023-04-11T21:59:28.658Z,13.99
2023-04-11T22:01:55.253Z,13.95
2023-04-11T22:04:22.202Z,13.96
2023-04-11T22:06:48.756Z,13.99
2023-04-11T22:09:15.378Z,13.98
2023-04-11T22:11:42.073Z,13.98
2023-04-11T22:14:08.504Z,13.98
2023-04-11T22:16:35.366Z,14.00
2023-04-11T22:19:01.857Z,14.01
2023-04-11T22:21:28.540Z,14.04
2023-04-11T22:23:56.360Z,14.02
2023-04-11T22:26:26.366Z,14.04
2023-04-11T22:28:54.322Z,14.08
2023-04-11T22:31:21.102Z,14.10
2023-04-11T22:33:48.043Z,14.12
2023-04-11T22:36:14.741Z,14.12
2023-04-11T22:38:41.213Z,14.12
2023-04-11T22:41:13.878Z,14.09
2023-04-11T22:43:40.354Z,14.05
2023-04-11T22:46:08.981Z,14.07
2023-04-11T22:48:36.361Z,14.07
2023-04-11T22:51:03.540Z,14.09
2023-04-11T22:53:29.991Z,14.13
2023-04-11T22:55:56.562Z,14.15
2023-04-11T22:58:23.055Z,14.13
2023-04-11T23:00:49.589Z,14.10
2023-04-11T23:03:16.208Z,14.11
2023-04-11T23:05:42.787Z,14.16
2023-04-11T23:08:09.875Z,14.21
2023-04-11T23:10:36.888Z,14.26
2023-04-11T23:13:03.627Z,14.28
2023-04-11T23:15:31.645Z,14.31
2023-04-11T23:17:58.767Z,14.33
2023-04-11T23:20:25.460Z,14.36
2023-04-11T23:22:51.923Z,14.35
2023-04-11T23:25:18.351Z,14.36
2023-04-11T23:27:45.083Z,14.40
2023-04-11T23:30:11.992Z,14.45
2023-04-11T23:32:38.958Z,14.46
2023-04-11T23:35:06.125Z,14.47
2023-04-11T23:37:32.618Z,14.49
2023-04-11T23:39:59.528Z,14.54
2023-04-11T23:42:26.222Z,14.54
2023-04-11T23:44:52.773Z,14.52
2023-04-11T23:47:19.242Z,14.52
2023-04-11T23:49:45.764Z,14.52
2023-04-11T23:52:12.323Z,14.51
2023-04-11T23:54:38.754Z,14.52
2023-04-11T23:57:05.357Z,14.53
2023-04-11T23:59:31.861Z,14.56
